createdAt,value
2017-03-15T00:00:27.794Z,67
2017-03-15T00:01:41.174Z,67
2017-03-15T00:02:54.954Z,67
2017-03-15T00:04:09.232Z,67
2017-03-15T00:05:24.850Z,67
2017-03-15T00:06:38.381Z,67
2017-03-15T00:07:52.391Z,67
2017-03-15T00:09:05.833Z,67
2017-03-15T00:10:19.599Z,67
2017-03-15T00:11:33.351Z,67
2017-03-15T00:12:47.362Z,67
2017-03-15T00:14:01.444Z,67
2017-03-15T00:15:15.194Z,67
2017-03-15T00:16:28.660Z,67
2017-03-15T00:17:42.834Z,67
2017-03-15T00:18:56.207Z,67
2017-03-15T00:20:10.310Z,67
2017-03-15T00:21:23.726Z,67
2017-03-15T00:22:37.216Z,67
2017-03-15T00:23:51.166Z,66
2017-03-15T00:25:04.572Z,67
2017-03-15T00:26:17.916Z,66
2017-03-15T00:27:31.313Z,66
2017-03-15T00:28:45.413Z,66
2017-03-15T00:29:59.213Z,66
2017-03-15T00:31:12.616Z,66
2017-03-15T00:32:26.366Z,66
2017-03-15T00:33:40.096Z,66
2017-03-15T00:34:53.873Z,66
2017-03-15T00:36:07.856Z,66
2017-03-15T00:37:21.683Z,66
2017-03-15T00:38:35.094Z,66
2017-03-15T00:39:48.443Z,66
2017-03-15T00:41:01.803Z,66
2017-03-15T00:42:15.372Z,66
2017-03-15T00:43:29.867Z,66
2017-03-15T00:44:43.230Z,66
2017-03-15T00:45:56.584Z,66
2017-03-15T00:47:10.128Z,66
2017-03-15T00:48:23.521Z,66
2017-03-15T00:49:37.418Z,66
2017-03-15T00:50:51.079Z,66
2017-03-15T00:52:05.276Z,66
2017-03-15T00:53:18.811Z,66
2017-03-15T00:54:32.197Z,66
2017-03-15T00:55:45.578Z,65
2017-03-15T00:56:59.588Z,65
2017-03-15T00:58:13.632Z,65
2017-03-15T00:59:27.846Z,65
2017-03-15T01:00:41.603Z,65
2017-03-15T01:01:55.084Z,65
2017-03-15T01:03:09.497Z,65
2017-03-15T01:04:22.965Z,65
2017-03-15T01:05:36.751Z,65
2017-03-15T01:06:50.469Z,65
2017-03-15T01:08:03.888Z,65
2017-03-15T01:09:17.757Z,65
2017-03-15T01:10:31.496Z,65
2017-03-15T01:11:45.186Z,65
2017-03-15T01:12:59.109Z,65
2017-03-15T01:14:13.279Z,65
2017-03-15T01:15:26.976Z,65
2017-03-15T01:16:40.370Z,65
2017-03-15T01:17:54.161Z,65
2017-03-15T01:19:07.935Z,65
2017-03-15T01:20:22.047Z,65
2017-03-15T01:21:37.970Z,65
2017-03-15T01:22:51.755Z,65
2017-03-15T01:24:05.170Z,65
2017-03-15T01:25:18.946Z,65
2017-03-15T01:26:32.665Z,65
2017-03-15T01:27:46.416Z,65
2017-03-15T01:28:59.802Z,65
2017-03-15T01:30:13.706Z,65
2017-03-15T01:31:27.484Z,65
2017-03-15T01:32:41.070Z,65
2017-03-15T01:33:54.741Z,65
2017-03-15T01:35:08.096Z,65
2017-03-15T01:36:21.640Z,65
2017-03-15T01:37:35.944Z,65
2017-03-15T01:38:49.596Z,65
2017-03-15T01:40:03.607Z,65
2017-03-15T01:41:17.097Z,65
2017-03-15T01:42:30.869Z,65
2017-03-15T01:43:44.263Z,65
2017-03-15T01:44:58.145Z,65
2017-03-15T01:46:11.939Z,65
2017-03-15T01:47:25.322Z,65
2017-03-15T01:48:38.750Z,65
2017-03-15T01:49:52.144Z,65
2017-03-15T01:51:05.600Z,65
2017-03-15T01:52:19.014Z,65
2017-03-15T01:53:32.777Z,65
2017-03-15T01:54:46.176Z,65
2017-03-15T01:55:59.914Z,65
2017-03-15T01:57:13.793Z,65
2017-03-15T01:58:27.586Z,65
2017-03-15T01:59:41.706Z,65
2017-03-15T02:00:55.142Z,65
2017-03-15T02:02:08.967Z,65
2017-03-15T02:03:22.364Z,65
2017-03-15T02:04:36.406Z,65
2017-03-15T02:05:50.088Z,65
2017-03-15T02:07:03.529Z,65
2017-03-15T02:08:17.358Z,65
2017-03-15T02:09:31.097Z,65
2017-03-15T02:10:44.921Z,65
2017-03-15T02:12:04.933Z,65
2017-03-15T02:13:18.486Z,65
2017-03-15T02:14:32.267Z,65
2017-03-15T02:15:46.067Z,65
2017-03-15T02:16:59.515Z,65
2017-03-15T02:18:13.465Z,65
2017-03-15T02:19:27.193Z,65
2017-03-15T02:20:40.652Z,65
2017-03-15T02:21:54.405Z,65
2017-03-15T02:23:08.527Z,65
2017-03-15T02:24:22.067Z,65
2017-03-15T02:25:36.238Z,65
2017-03-15T02:26:50.045Z,65
2017-03-15T02:28:03.796Z,65
2017-03-15T02:29:17.173Z,65
2017-03-15T02:30:30.556Z,65
2017-03-15T02:31:44.253Z,65
2017-03-15T02:32:57.965Z,65
2017-03-15T02:34:11.423Z,65
2017-03-15T02:35:24.807Z,65
2017-03-15T02:36:38.407Z,65
2017-03-15T02:37:54.294Z,65
2017-03-15T02:39:07.745Z,65
2017-03-15T02:40:21.110Z,65
2017-03-15T02:41:34.479Z,65
2017-03-15T02:42:48.166Z,65
2017-03-15T02:44:01.575Z,65
2017-03-15T02:45:15.105Z,65
2017-03-15T02:46:28.824Z,65
2017-03-15T02:47:42.170Z,65
2017-03-15T02:48:56.249Z,65
2017-03-15T02:50:09.676Z,65
2017-03-15T02:51:23.240Z,65
2017-03-15T02:52:36.583Z,65
2017-03-15T02:53:50.304Z,65
2017-03-15T02:55:03.818Z,65
2017-03-15T02:56:17.626Z,65
2017-03-15T02:57:31.036Z,65
2017-03-15T02:58:44.388Z,65
2017-03-15T02:59:57.791Z,65
2017-03-15T03:01:11.206Z,65
2017-03-15T03:02:24.676Z,65
2017-03-15T03:03:38.037Z,65
2017-03-15T03:04:51.674Z,65
2017-03-15T03:06:05.334Z,64
2017-03-15T03:07:19.029Z,64
2017-03-15T03:08:32.445Z,64
2017-03-15T03:09:46.220Z,64
2017-03-15T03:10:59.625Z,65
2017-03-15T03:12:13.491Z,65
2017-03-15T03:13:27.183Z,65
2017-03-15T03:14:40.625Z,65
2017-03-15T03:15:54.015Z,65
2017-03-15T03:17:07.813Z,65
2017-03-15T03:18:21.405Z,65
2017-03-15T03:19:34.763Z,65
2017-03-15T03:20:48.384Z,65
2017-03-15T03:22:01.802Z,65
2017-03-15T03:23:15.438Z,65
2017-03-15T03:24:29.204Z,65
2017-03-15T03:25:42.600Z,66
2017-03-15T03:26:56.064Z,66
2017-03-15T03:28:09.462Z,66
2017-03-15T03:29:22.906Z,66
2017-03-15T03:30:36.400Z,66
2017-03-15T03:31:49.727Z,66
2017-03-15T03:33:03.589Z,66
2017-03-15T03:34:17.059Z,66
2017-03-15T03:35:30.547Z,66
2017-03-15T03:36:43.997Z,66
2017-03-15T03:37:57.510Z,66
2017-03-15T03:39:11.004Z,65
2017-03-15T03:40:24.704Z,65
2017-03-15T03:41:38.083Z,65
2017-03-15T03:42:51.580Z,65
2017-03-15T03:44:04.924Z,65
2017-03-15T03:45:18.364Z,65
2017-03-15T03:46:32.144Z,65
2017-03-15T03:47:45.559Z,65
2017-03-15T03:48:59.047Z,65
2017-03-15T03:50:12.449Z,65
2017-03-15T03:51:25.876Z,65
2017-03-15T03:52:39.237Z,65
2017-03-15T03:53:56.307Z,65
2017-03-15T03:55:09.671Z,65
2017-03-15T03:56:23.063Z,65
2017-03-15T03:57:36.807Z,65
2017-03-15T03:58:50.593Z,66
2017-03-15T04:00:04.063Z,66
2017-03-15T04:01:17.510Z,66
2017-03-15T04:02:56.822Z,66
2017-03-15T04:04:10.357Z,66
2017-03-15T04:05:23.761Z,66
2017-03-15T04:06:37.196Z,66
2017-03-15T04:07:50.704Z,66
2017-03-15T04:09:04.518Z,66
2017-03-15T04:10:18.448Z,66
2017-03-15T04:11:31.901Z,66
2017-03-15T04:12:45.635Z,66
2017-03-15T04:13:59.191Z,66
2017-03-15T04:15:12.601Z,66
2017-03-15T04:16:26.187Z,66
2017-03-15T04:17:39.630Z,66
2017-03-15T04:18:53.126Z,66
2017-03-15T04:20:06.603Z,66
2017-03-15T04:21:19.970Z,66
2017-03-15T04:22:33.641Z,66
2017-03-15T04:23:47.062Z,66
2017-03-15T04:25:00.812Z,66
2017-03-15T04:26:14.736Z,66
2017-03-15T04:27:28.877Z,66
2017-03-15T04:28:42.263Z,66
2017-03-15T04:29:55.685Z,66
2017-03-15T04:31:09.539Z,66
2017-03-15T04:32:24.355Z,66
2017-03-15T04:33:37.921Z,66
2017-03-15T04:34:51.382Z,66
2017-03-15T04:36:04.804Z,66
2017-03-15T04:37:18.315Z,66
2017-03-15T04:38:31.740Z,66
2017-03-15T04:39:45.302Z,66
2017-03-15T04:40:58.945Z,66
2017-03-15T04:42:12.369Z,66
2017-03-15T04:43:26.386Z,66
2017-03-15T04:44:39.987Z,66
2017-03-15T04:45:53.447Z,66
2017-03-15T04:47:07.258Z,66
2017-03-15T04:48:20.668Z,66
2017-03-15T04:49:34.185Z,66
2017-03-15T04:50:47.579Z,66
2017-03-15T04:52:01.300Z,66
2017-03-15T04:53:15.005Z,66
2017-03-15T04:54:28.807Z,66
2017-03-15T04:55:42.244Z,66
2017-03-15T04:56:55.766Z,66
2017-03-15T04:58:09.206Z,66
2017-03-15T04:59:22.595Z,66
2017-03-15T05:00:36.029Z,66
2017-03-15T05:01:49.500Z,66
2017-03-15T05:03:03.603Z,66
2017-03-15T05:04:17.021Z,66
2017-03-15T05:05:30.444Z,66
2017-03-15T05:06:43.873Z,66
2017-03-15T05:07:57.796Z,66
2017-03-15T05:09:11.159Z,66
2017-03-15T05:10:27.719Z,66
2017-03-15T05:11:41.257Z,66
2017-03-15T05:12:55.105Z,66
2017-03-15T05:14:08.538Z,66
2017-03-15T05:15:22.080Z,66
2017-03-15T05:16:35.970Z,66
2017-03-15T05:17:49.625Z,66
2017-03-15T05:19:03.205Z,66
2017-03-15T05:20:16.715Z,66
2017-03-15T05:21:30.515Z,66
2017-03-15T05:22:44.083Z,66
2017-03-15T05:23:57.655Z,66
2017-03-15T05:25:11.836Z,66
2017-03-15T05:26:25.297Z,66
2017-03-15T05:27:39.123Z,66
2017-03-15T05:28:53.574Z,66
2017-03-15T05:30:07.700Z,66
2017-03-15T05:31:21.898Z,66
2017-03-15T05:32:35.794Z,66
2017-03-15T05:33:49.326Z,66
2017-03-15T05:35:03.711Z,66
2017-03-15T05:36:17.517Z,66
2017-03-15T05:37:31.372Z,66
2017-03-15T05:38:45.573Z,66
2017-03-15T05:39:59.935Z,66
2017-03-15T05:41:13.451Z,66
2017-03-15T05:42:27.023Z,66
2017-03-15T05:43:40.466Z,66
2017-03-15T05:44:54.369Z,66
2017-03-15T05:46:07.809Z,66
2017-03-15T05:47:21.246Z,66
2017-03-15T05:48:35.021Z,66
2017-03-15T05:49:48.667Z,66
2017-03-15T05:51:02.117Z,66
2017-03-15T05:52:15.610Z,66
2017-03-15T05:53:30.021Z,66
2017-03-15T05:54:43.884Z,66
2017-03-15T05:55:58.277Z,66
2017-03-15T05:57:11.994Z,66
2017-03-15T05:58:25.439Z,66
2017-03-15T05:59:38.854Z,66
2017-03-15T06:00:52.952Z,66
2017-03-15T06:02:06.761Z,66
2017-03-15T06:03:20.139Z,66
2017-03-15T06:04:33.922Z,66
2017-03-15T06:05:47.416Z,66
2017-03-15T06:07:01.389Z,66
2017-03-15T06:08:15.011Z,66
2017-03-15T06:09:28.747Z,66
2017-03-15T06:10:42.295Z,66
2017-03-15T06:11:56.094Z,66
2017-03-15T06:13:09.463Z,66
2017-03-15T06:14:23.216Z,66
2017-03-15T06:15:36.757Z,66
2017-03-15T06:16:50.671Z,66
2017-03-15T06:18:04.460Z,66
2017-03-15T06:19:17.857Z,66
2017-03-15T06:20:31.671Z,66
2017-03-15T06:21:46.327Z,66
2017-03-15T06:22:59.787Z,66
2017-03-15T06:24:13.259Z,66
2017-03-15T06:25:27.420Z,67
2017-03-15T06:26:43.128Z,67
2017-03-15T06:27:56.676Z,67
2017-03-15T06:29:10.370Z,67
2017-03-15T06:30:23.768Z,67
2017-03-15T06:31:37.790Z,67
2017-03-15T06:32:51.321Z,67
2017-03-15T06:34:04.999Z,67
2017-03-15T06:35:18.519Z,67
2017-03-15T06:36:31.928Z,67
2017-03-15T06:37:45.722Z,67
2017-03-15T06:38:59.721Z,67
2017-03-15T06:40:13.195Z,67
2017-03-15T06:41:26.675Z,67
2017-03-15T06:42:41.426Z,67
2017-03-15T06:43:55.536Z,67
2017-03-15T06:45:09.320Z,67
2017-03-15T06:46:23.018Z,67
2017-03-15T06:47:36.475Z,67
2017-03-15T06:48:50.015Z,67
2017-03-15T06:50:03.769Z,67
2017-03-15T06:51:17.784Z,67
2017-03-15T06:52:31.366Z,67
2017-03-15T06:53:45.102Z,67
2017-03-15T06:54:58.774Z,67
2017-03-15T06:56:12.643Z,67
2017-03-15T06:57:28.376Z,67
2017-03-15T06:58:41.883Z,68
2017-03-15T06:59:55.887Z,68
2017-03-15T07:01:10.013Z,68
2017-03-15T07:02:24.209Z,68
2017-03-15T07:03:37.888Z,68
2017-03-15T07:04:51.474Z,68
2017-03-15T07:06:05.366Z,68
2017-03-15T07:07:19.447Z,68
2017-03-15T07:08:34.320Z,68
2017-03-15T07:10:02.779Z,68
2017-03-15T07:11:16.338Z,68
2017-03-15T07:12:30.125Z,68
2017-03-15T07:13:43.699Z,68
2017-03-15T07:14:58.158Z,68
2017-03-15T07:16:12.051Z,68
2017-03-15T07:17:25.934Z,68
2017-03-15T07:18:39.974Z,68
2017-03-15T07:19:53.550Z,68
2017-03-15T07:21:07.374Z,68
2017-03-15T07:22:21.160Z,68
2017-03-15T07:23:34.648Z,68
2017-03-15T07:24:48.917Z,68
2017-03-15T07:26:02.435Z,68
2017-03-15T07:27:16.821Z,68
2017-03-15T07:28:30.775Z,68
2017-03-15T07:29:44.522Z,68
2017-03-15T07:30:59.370Z,68
2017-03-15T07:32:23.807Z,69
2017-03-15T07:34:02.482Z,69
2017-03-15T07:35:16.108Z,69
2017-03-15T07:36:30.019Z,69
2017-03-15T07:37:43.814Z,69
2017-03-15T07:38:57.575Z,69
2017-03-15T07:40:11.182Z,69
2017-03-15T07:41:24.727Z,69
2017-03-15T07:42:38.712Z,69
2017-03-15T07:43:55.263Z,69
2017-03-15T07:45:09.447Z,69
2017-03-15T07:46:29.282Z,69
2017-03-15T07:47:42.934Z,69
2017-03-15T07:48:59.627Z,69
2017-03-15T07:50:35.896Z,69
2017-03-15T07:51:49.442Z,69
2017-03-15T07:53:09.488Z,69
2017-03-15T07:54:23.201Z,69
2017-03-15T07:55:37.070Z,69
2017-03-15T07:56:51.495Z,69
2017-03-15T07:58:05.057Z,69
2017-03-15T07:59:18.869Z,69
2017-03-15T08:00:32.667Z,69
2017-03-15T08:01:46.524Z,69
2017-03-15T08:05:40.582Z,70
2017-03-15T08:06:54.450Z,70
2017-03-15T08:08:08.199Z,70
2017-03-15T08:09:21.756Z,70
2017-03-15T08:10:35.246Z,70
2017-03-15T08:11:48.804Z,70
2017-03-15T08:13:02.287Z,70
2017-03-15T08:14:16.504Z,70
2017-03-15T08:15:29.890Z,70
2017-03-15T08:16:43.370Z,70
2017-03-15T08:17:57.088Z,70
2017-03-15T08:19:10.873Z,70
2017-03-15T08:20:24.669Z,70
2017-03-15T08:21:38.059Z,70
2017-03-15T08:22:51.636Z,71
2017-03-15T08:24:05.180Z,71
2017-03-15T08:25:18.971Z,71
2017-03-15T08:26:33.040Z,71
2017-03-15T08:27:47.899Z,71
2017-03-15T08:29:01.533Z,71
2017-03-15T08:30:14.989Z,71
2017-03-15T08:31:28.819Z,71
2017-03-15T08:32:42.721Z,71
2017-03-15T08:33:56.373Z,71
2017-03-15T08:35:11.377Z,72
2017-03-15T08:36:25.438Z,72
2017-03-15T08:37:39.382Z,72
2017-03-15T08:38:53.936Z,72
2017-03-15T08:40:07.421Z,72
2017-03-15T08:41:21.247Z,72
2017-03-15T08:42:34.959Z,72
2017-03-15T08:43:48.455Z,72
2017-03-15T08:45:02.490Z,72
2017-03-15T08:46:16.287Z,72
2017-03-15T08:47:30.110Z,72
2017-03-15T08:48:45.043Z,72
2017-03-15T08:49:58.515Z,72
2017-03-15T08:51:12.799Z,73
2017-03-15T08:52:26.682Z,73
2017-03-15T08:53:40.531Z,73
2017-03-15T08:54:55.747Z,73
2017-03-15T08:56:10.775Z,73
2017-03-15T08:57:25.385Z,73
2017-03-15T08:58:39.745Z,73
2017-03-15T08:59:53.318Z,73
2017-03-15T09:01:07.349Z,73
2017-03-15T09:02:21.116Z,73
2017-03-15T09:03:38.749Z,73
2017-03-15T09:04:52.369Z,73
2017-03-15T09:06:05.781Z,73
2017-03-15T09:07:19.527Z,73
2017-03-15T09:08:33.758Z,73
2017-03-15T09:09:47.524Z,73
2017-03-15T09:11:01.099Z,73
2017-03-15T09:12:15.486Z,73
2017-03-15T09:13:28.986Z,73
2017-03-15T09:14:42.631Z,73
2017-03-15T09:15:56.635Z,73
2017-03-15T09:17:10.190Z,73
2017-03-15T09:18:23.619Z,73
2017-03-15T09:19:37.128Z,73
2017-03-15T09:20:50.675Z,73
2017-03-15T09:22:04.664Z,73
2017-03-15T09:23:18.783Z,73
2017-03-15T09:24:32.256Z,73
2017-03-15T09:25:45.850Z,73
2017-03-15T09:26:59.311Z,73
2017-03-15T09:28:13.421Z,73
2017-03-15T09:29:30.873Z,73
2017-03-15T09:30:46.483Z,74
2017-03-15T09:32:02.294Z,74
2017-03-15T09:33:22.565Z,74
2017-03-15T09:34:41.055Z,74
2017-03-15T09:35:57.362Z,74
2017-03-15T09:37:11.281Z,74
2017-03-15T09:38:24.754Z,74
2017-03-15T09:39:38.906Z,74
2017-03-15T09:40:52.776Z,74
2017-03-15T09:42:06.276Z,74
2017-03-15T09:43:19.908Z,74
2017-03-15T09:44:33.349Z,74
2017-03-15T09:45:46.815Z,74
2017-03-15T09:47:00.821Z,74
2017-03-15T09:48:14.360Z,74
2017-03-15T09:49:27.818Z,74
2017-03-15T09:50:41.257Z,74
2017-03-15T09:51:55.000Z,74
2017-03-15T09:53:08.767Z,74
2017-03-15T09:54:22.465Z,74
2017-03-15T09:55:36.135Z,74
2017-03-15T09:56:49.633Z,74
2017-03-15T09:58:03.019Z,74
2017-03-15T09:59:17.135Z,74
2017-03-15T10:00:30.665Z,74
2017-03-15T10:01:45.747Z,74
2017-03-15T10:02:59.203Z,74
2017-03-15T10:04:12.668Z,74
2017-03-15T10:05:26.577Z,74
2017-03-15T10:06:40.105Z,74
2017-03-15T10:07:53.662Z,75
2017-03-15T10:09:07.280Z,75
2017-03-15T10:10:20.756Z,75
2017-03-15T10:11:34.485Z,75
2017-03-15T10:12:48.020Z,75
2017-03-15T10:14:02.068Z,75
2017-03-15T10:15:15.676Z,75
2017-03-15T10:16:29.173Z,75
2017-03-15T10:17:42.724Z,75
2017-03-15T10:18:56.847Z,75
2017-03-15T10:20:12.905Z,75
2017-03-15T10:21:26.439Z,75
2017-03-15T10:22:39.925Z,75
2017-03-15T10:23:53.496Z,75
2017-03-15T10:25:07.419Z,76
2017-03-15T10:26:20.927Z,76
2017-03-15T10:27:34.665Z,76
2017-03-15T10:28:49.080Z,76
2017-03-15T10:30:02.650Z,76
2017-03-15T10:31:16.390Z,76
2017-03-15T10:32:29.911Z,76
2017-03-15T10:33:43.866Z,76
2017-03-15T10:34:57.723Z,76
2017-03-15T10:36:11.224Z,76
2017-03-15T10:37:24.679Z,76
2017-03-15T10:38:38.424Z,75
2017-03-15T10:39:52.107Z,75
2017-03-15T10:41:05.527Z,75
2017-03-15T10:42:19.009Z,75
2017-03-15T10:43:32.678Z,75
2017-03-15T10:44:46.930Z,75
2017-03-15T10:46:00.364Z,75
2017-03-15T10:47:13.791Z,75
2017-03-15T10:48:27.506Z,75
2017-03-15T10:49:40.954Z,75
2017-03-15T10:50:54.576Z,75
2017-03-15T10:52:08.336Z,75
2017-03-15T10:53:21.796Z,75
2017-03-15T10:54:35.596Z,75
2017-03-15T10:55:49.952Z,75
2017-03-15T10:57:03.480Z,75
2017-03-15T10:58:17.534Z,75
2017-03-15T10:59:31.022Z,75
2017-03-15T11:00:45.385Z,75
2017-03-15T11:01:59.496Z,75
2017-03-15T11:03:13.753Z,75
2017-03-15T11:04:27.919Z,75
2017-03-15T11:05:42.182Z,75
2017-03-15T11:06:56.102Z,75
2017-03-15T11:08:10.039Z,75
2017-03-15T11:09:23.516Z,75
2017-03-15T11:10:38.020Z,75
2017-03-15T11:11:51.634Z,75
2017-03-15T11:13:05.362Z,75
2017-03-15T11:14:18.788Z,75
2017-03-15T11:15:32.889Z,75
2017-03-15T11:16:46.381Z,75
2017-03-15T11:18:00.066Z,75
2017-03-15T11:19:13.837Z,75
2017-03-15T11:20:27.590Z,75
2017-03-15T11:21:41.379Z,75
2017-03-15T11:22:54.890Z,75
2017-03-15T11:24:08.341Z,75
2017-03-15T11:25:22.394Z,75
2017-03-15T11:26:36.354Z,75
2017-03-15T11:27:50.901Z,75
2017-03-15T11:29:05.027Z,75
2017-03-15T11:30:18.877Z,75
2017-03-15T11:31:33.180Z,75
2017-03-15T11:32:47.005Z,75
2017-03-15T11:34:01.220Z,75
2017-03-15T11:35:14.779Z,75
2017-03-15T11:36:30.977Z,75
2017-03-15T11:37:45.612Z,75
2017-03-15T11:38:59.104Z,75
2017-03-15T11:40:13.192Z,75
2017-03-15T11:41:27.678Z,75
2017-03-15T11:42:41.823Z,75
2017-03-15T11:43:55.764Z,75
2017-03-15T11:45:09.261Z,75
2017-03-15T11:46:23.041Z,76
2017-03-15T11:47:36.828Z,76
2017-03-15T11:48:50.378Z,76
2017-03-15T11:50:04.045Z,76
2017-03-15T11:51:18.013Z,76
2017-03-15T11:52:32.041Z,76
2017-03-15T11:53:45.526Z,76
2017-03-15T11:54:58.907Z,76
2017-03-15T11:56:12.772Z,76
2017-03-15T11:57:26.185Z,76
2017-03-15T11:58:39.603Z,76
2017-03-15T11:59:53.021Z,76
2017-03-15T12:01:06.501Z,76
2017-03-15T12:02:19.983Z,76
2017-03-15T12:03:33.817Z,76
2017-03-15T12:04:47.702Z,76
2017-03-15T12:06:01.907Z,76
2017-03-15T12:07:15.372Z,76
2017-03-15T12:08:29.213Z,76
2017-03-15T12:09:42.879Z,75
2017-03-15T12:10:56.859Z,75
2017-03-15T12:12:10.439Z,75
2017-03-15T12:13:23.883Z,75
2017-03-15T12:14:38.341Z,75
2017-03-15T12:15:52.103Z,75
2017-03-15T12:17:05.547Z,75
2017-03-15T12:18:18.991Z,75
2017-03-15T12:19:32.492Z,75
2017-03-15T12:20:45.985Z,75
2017-03-15T12:21:59.723Z,75
2017-03-15T12:23:13.805Z,75
2017-03-15T12:24:27.346Z,75
2017-03-15T12:25:41.501Z,75
2017-03-15T12:26:55.019Z,75
2017-03-15T12:28:08.486Z,75
2017-03-15T12:29:23.374Z,75
2017-03-15T12:30:37.091Z,75
2017-03-15T12:31:50.471Z,75
2017-03-15T12:33:03.893Z,74
2017-03-15T12:34:17.585Z,74
2017-03-15T12:35:31.351Z,74
2017-03-15T12:36:44.886Z,74
2017-03-15T12:37:58.451Z,74
2017-03-15T12:39:12.806Z,74
2017-03-15T12:40:26.234Z,74
2017-03-15T12:41:40.437Z,74
2017-03-15T12:42:54.394Z,74
2017-03-15T12:44:07.899Z,74
2017-03-15T12:45:21.761Z,74
2017-03-15T12:46:35.401Z,74
2017-03-15T12:47:48.851Z,74
2017-03-15T12:49:02.657Z,74
2017-03-15T12:50:16.614Z,74
2017-03-15T12:52:32.166Z,74
2017-03-15T12:53:48.169Z,74
2017-03-15T12:55:01.655Z,74
2017-03-15T12:56:15.601Z,74
2017-03-15T12:57:29.476Z,74
2017-03-15T12:58:43.164Z,75
2017-03-15T12:59:56.580Z,75
2017-03-15T13:01:11.047Z,75
2017-03-15T13:02:24.493Z,75
2017-03-15T13:03:38.014Z,75
2017-03-15T13:04:52.143Z,75
2017-03-15T13:06:06.051Z,75
2017-03-15T13:07:45.285Z,76
2017-03-15T13:08:59.422Z,76
2017-03-15T13:10:13.754Z,76
2017-03-15T13:11:27.970Z,76
2017-03-15T13:12:41.646Z,76
2017-03-15T13:13:55.494Z,76
2017-03-15T13:15:08.945Z,76
2017-03-15T13:16:23.043Z,76
2017-03-15T13:17:36.441Z,76
2017-03-15T13:18:50.799Z,76
2017-03-15T13:20:04.579Z,76
2017-03-15T13:21:17.963Z,77
2017-03-15T13:22:31.683Z,77
2017-03-15T13:23:46.126Z,77
2017-03-15T13:25:00.056Z,77
2017-03-15T13:26:13.787Z,77
2017-03-15T13:27:28.226Z,77
2017-03-15T13:28:41.902Z,77
2017-03-15T13:29:55.446Z,77
2017-03-15T13:31:08.953Z,77
2017-03-15T13:32:22.521Z,77
2017-03-15T13:33:36.773Z,77
2017-03-15T13:34:50.294Z,77
2017-03-15T13:36:04.054Z,77
2017-03-15T13:37:17.852Z,77
2017-03-15T13:38:31.674Z,77
2017-03-15T13:39:45.198Z,77
2017-03-15T13:40:58.974Z,77
2017-03-15T13:42:12.428Z,77
2017-03-15T13:43:25.849Z,77
2017-03-15T13:44:39.296Z,77
2017-03-15T13:45:53.656Z,77
2017-03-15T13:47:07.474Z,77
2017-03-15T13:48:20.993Z,77
2017-03-15T13:49:34.820Z,77
2017-03-15T13:50:48.642Z,77
2017-03-15T13:52:02.826Z,77
2017-03-15T13:53:16.888Z,77
2017-03-15T13:54:30.707Z,77
2017-03-15T13:55:44.755Z,77
2017-03-15T13:56:58.671Z,77
2017-03-15T13:58:12.322Z,76
2017-03-15T13:59:26.166Z,76
2017-03-15T14:00:39.833Z,76
2017-03-15T14:01:53.802Z,76
2017-03-15T14:03:07.293Z,76
2017-03-15T14:04:21.230Z,76
2017-03-15T14:07:55.327Z,76
2017-03-15T14:12:09.455Z,76
2017-03-15T14:13:23.904Z,76
2017-03-15T14:14:38.106Z,76
2017-03-15T14:15:54.241Z,76
2017-03-15T14:17:08.461Z,76
2017-03-15T14:18:22.394Z,76
2017-03-15T14:19:36.653Z,76
2017-03-15T14:20:51.084Z,76
2017-03-15T14:22:04.685Z,76
2017-03-15T14:23:18.372Z,76
2017-03-15T14:24:33.571Z,76
2017-03-15T14:25:47.596Z,76
2017-03-15T14:27:02.733Z,76
2017-03-15T14:28:17.923Z,76
2017-03-15T14:29:36.207Z,76
2017-03-15T14:30:50.982Z,76
2017-03-15T14:32:05.994Z,76
2017-03-15T14:33:20.990Z,76
2017-03-15T14:34:34.499Z,76
2017-03-15T14:35:49.155Z,76
2017-03-15T14:37:03.136Z,76
2017-03-15T14:41:31.531Z,76
2017-03-15T14:42:46.280Z,76
2017-03-15T14:44:00.417Z,76
2017-03-15T14:45:15.898Z,75
2017-03-15T14:46:30.560Z,75
2017-03-15T14:47:44.917Z,75
2017-03-15T14:48:59.866Z,75
2017-03-15T14:50:13.862Z,75
2017-03-15T14:51:28.188Z,75
2017-03-15T14:52:41.560Z,75
2017-03-15T14:53:55.999Z,75
2017-03-15T14:55:10.494Z,75
2017-03-15T14:56:40.544Z,75
2017-03-15T14:57:55.538Z,75
2017-03-15T14:59:09.261Z,75
2017-03-15T15:00:23.847Z,75
2017-03-15T15:01:37.715Z,75
2017-03-15T15:02:51.991Z,75
2017-03-15T15:04:06.823Z,75
2017-03-15T15:05:20.954Z,75
2017-03-15T15:06:34.999Z,75
2017-03-15T15:07:49.543Z,75
2017-03-15T15:09:03.721Z,75
2017-03-15T15:10:22.144Z,75
2017-03-15T15:11:43.490Z,75
2017-03-15T15:12:58.855Z,75
2017-03-15T15:14:20.590Z,75
2017-03-15T15:15:34.637Z,75
2017-03-15T15:16:52.000Z,75
2017-03-15T15:18:08.658Z,75
2017-03-15T15:19:32.851Z,75
2017-03-15T15:20:57.999Z,75
2017-03-15T15:22:16.163Z,75
2017-03-15T15:23:32.878Z,75
2017-03-15T15:24:48.764Z,75
2017-03-15T15:26:02.249Z,75
2017-03-15T15:27:15.767Z,75
2017-03-15T15:28:30.865Z,75
2017-03-15T15:29:44.676Z,75
2017-03-15T15:30:58.571Z,75
2017-03-15T15:32:13.443Z,75
2017-03-15T15:33:28.347Z,75
2017-03-15T15:34:43.738Z,75
2017-03-15T15:36:01.283Z,75
2017-03-15T15:37:15.689Z,75
2017-03-15T15:38:33.854Z,75
2017-03-15T15:39:50.395Z,75
2017-03-15T15:41:04.761Z,75
2017-03-15T15:42:18.626Z,75
2017-03-15T15:43:33.422Z,75
2017-03-15T15:44:47.144Z,75
2017-03-15T15:46:00.739Z,75
2017-03-15T15:47:14.279Z,75
2017-03-15T15:48:28.118Z,75
2017-03-15T15:49:42.535Z,75
2017-03-15T15:50:59.725Z,75
2017-03-15T15:52:14.286Z,75
2017-03-15T15:53:29.514Z,75
2017-03-15T15:54:43.323Z,75
2017-03-15T15:55:57.860Z,75
2017-03-15T15:57:11.662Z,75
2017-03-15T15:58:25.446Z,75
2017-03-15T15:59:39.839Z,75
2017-03-15T16:00:54.263Z,75
2017-03-15T16:02:09.226Z,75
2017-03-15T16:03:23.245Z,75
2017-03-15T16:04:37.404Z,75
2017-03-15T16:05:51.605Z,75
2017-03-15T16:07:05.034Z,75
2017-03-15T16:08:18.850Z,75
2017-03-15T16:09:32.771Z,75
2017-03-15T16:10:46.647Z,75
2017-03-15T16:12:00.246Z,75
2017-03-15T16:13:13.755Z,75
2017-03-15T16:14:28.542Z,75
2017-03-15T16:15:42.949Z,75
2017-03-15T16:16:56.767Z,75
2017-03-15T16:18:10.858Z,75
2017-03-15T16:19:24.937Z,75
2017-03-15T16:20:39.737Z,75
2017-03-15T16:21:53.986Z,75
2017-03-15T16:23:08.825Z,75
2017-03-15T16:24:22.812Z,75
2017-03-15T16:25:36.985Z,75
2017-03-15T16:26:51.232Z,75
2017-03-15T16:28:05.313Z,75
2017-03-15T16:29:19.356Z,75
2017-03-15T16:30:35.238Z,75
2017-03-15T16:31:48.767Z,75
2017-03-15T16:33:02.189Z,75
2017-03-15T16:34:16.708Z,75
2017-03-15T16:35:30.702Z,75
2017-03-15T16:36:44.368Z,75
2017-03-15T16:37:58.640Z,75
2017-03-15T16:39:12.465Z,75
2017-03-15T16:40:27.577Z,75
2017-03-15T16:41:42.157Z,75
2017-03-15T16:42:59.250Z,75
2017-03-15T16:44:12.798Z,75
2017-03-15T16:45:26.319Z,75
2017-03-15T16:46:41.043Z,75
2017-03-15T16:47:55.358Z,75
2017-03-15T16:49:08.990Z,75
2017-03-15T16:50:23.470Z,74
2017-03-15T16:51:38.070Z,74
2017-03-15T16:52:55.213Z,74
2017-03-15T16:54:10.173Z,74
2017-03-15T16:55:26.148Z,74
2017-03-15T16:56:39.952Z,74
2017-03-15T16:57:58.069Z,74
2017-03-15T16:59:13.989Z,74
2017-03-15T17:00:29.388Z,74
2017-03-15T17:01:43.144Z,74
2017-03-15T17:02:57.636Z,74
2017-03-15T17:04:12.921Z,74
2017-03-15T17:05:29.549Z,74
2017-03-15T17:06:48.588Z,74
2017-03-15T17:08:05.737Z,74
2017-03-15T17:09:23.835Z,74
2017-03-15T17:10:39.052Z,74
2017-03-15T17:12:01.475Z,74
2017-03-15T17:13:18.796Z,74
2017-03-15T17:14:37.987Z,74
2017-03-15T17:15:52.993Z,74
2017-03-15T17:17:10.111Z,73
2017-03-15T17:18:25.818Z,73
2017-03-15T17:19:40.457Z,73
2017-03-15T17:20:55.769Z,73
2017-03-15T17:22:10.667Z,73
2017-03-15T17:23:25.548Z,73
2017-03-15T17:24:40.594Z,73
2017-03-15T17:25:54.528Z,73
2017-03-15T17:27:08.988Z,73
2017-03-15T17:28:24.230Z,73
2017-03-15T17:29:40.853Z,73
2017-03-15T17:30:54.702Z,73
2017-03-15T17:32:09.483Z,73
2017-03-15T17:33:23.624Z,73
2017-03-15T17:34:37.085Z,73
2017-03-15T17:35:51.149Z,73
2017-03-15T17:37:05.236Z,73
2017-03-15T17:38:19.841Z,73
2017-03-15T17:39:33.707Z,73
2017-03-15T17:40:48.160Z,73
2017-03-15T17:42:18.700Z,72
2017-03-15T17:43:39.068Z,72
2017-03-15T17:45:12.722Z,72
2017-03-15T17:47:38.886Z,72
2017-03-15T17:48:52.956Z,72
2017-03-15T17:50:08.358Z,72
2017-03-15T17:51:22.274Z,72
2017-03-15T17:52:37.129Z,72